Check out our new BloomSky Weather System.

Active alerts


No alerts


Thunder radar  blitzortung!


Rain radar more information rain snow radar


Visit our other weather sites:

Template documentation
and downloads

And another site



Weather Underground History page Text

Daily Summary for January 5, 2017 Units:  English    Metric   Both
« Previous Day
Next Day »
Daily Weekly Monthly Yearly Custom
  High: Low: Average:
Temperature: 55.9 °F 42.4 °F 49.6 °F
Dew Point: 53.6 °F 40.6 °F 47.1 °F
Humidity: 96 % 84 % 91 %
Wind Speed: 11.0 mph 0.0 mph 1.3 mph
Wind Gust: 18.0 mph - -
Wind:- - West
Pressure: 30.00 in 29.86 in -
Precipitation: 0.00 in    
Historical Graphs
 
 
Tabular Data for January 5, 2017
Time Temperature Dew Point Pressure Wind Wind Speed Wind Gust Humidity Rainfall Rate (Hourly)
00:02 43.0 °F 41.2 °F 29.96 in Calm     93 % 0.00 in
00:07 42.8 °F 41.0 °F 29.96 in Calm     93 % 0.00 in
00:12 42.6 °F 40.8 °F 29.96 in Calm     93 % 0.00 in
00:17 42.4 °F 40.6 °F 29.96 in Calm     93 % 0.00 in
00:22 42.4 °F 40.6 °F 29.96 in Calm     93 % 0.00 in
00:27 42.4 °F 40.6 °F 29.96 in Calm     93 % 0.00 in
00:32 42.4 °F 40.8 °F 29.96 in Calm     94 % 0.00 in
00:37 42.6 °F 41.0 °F 29.95 in Calm     94 % 0.00 in
00:42 42.8 °F 41.2 °F 29.94 in Calm     94 % 0.00 in
00:47 42.8 °F 41.2 °F 29.94 in Calm     94 % 0.00 in
00:52 43.2 °F 41.5 °F 29.94 in Calm     94 % 0.00 in
00:57 43.2 °F 41.5 °F 29.94 in Calm     94 % 0.00 in
01:02 43.3 °F 41.7 °F 29.94 in Calm     94 % 0.00 in
01:07 43.5 °F 41.9 °F 29.93 in Calm     94 % 0.00 in
01:12 43.7 °F 42.1 °F 29.94 in Calm     94 % 0.00 in
01:17 43.9 °F 42.3 °F 29.94 in NNW 1.0 mph 1.0 mph 94 % 0.00 in
01:22 44.1 °F 42.4 °F 29.94 in Calm   3.0 mph 94 % 0.00 in
01:27 44.2 °F 42.3 °F 29.94 in Calm   3.0 mph 93 % 0.00 in
01:32 44.4 °F 42.4 °F 29.94 in Calm   3.0 mph 93 % 0.00 in
01:37 44.4 °F 42.4 °F 29.94 in NNW 1.0 mph 2.0 mph 93 % 0.00 in
01:42 44.6 °F 42.6 °F 29.94 in Calm   2.0 mph 93 % 0.00 in
01:47 44.8 °F 42.8 °F 29.94 in Calm   2.0 mph 93 % 0.00 in
01:52 44.8 °F 42.8 °F 29.94 in Calm   2.0 mph 93 % 0.00 in
01:57 44.8 °F 42.8 °F 29.94 in Calm   1.0 mph 93 % 0.00 in
02:02 45.0 °F 43.0 °F 29.94 in Calm   1.0 mph 93 % 0.00 in
02:07 45.0 °F 43.0 °F 29.94 in NNW 1.0 mph 1.0 mph 93 % 0.00 in
02:12 45.0 °F 43.0 °F 29.94 in NNW 1.0 mph 1.0 mph 93 % 0.00 in
02:17 45.1 °F 43.2 °F 29.94 in Calm   1.0 mph 93 % 0.00 in
02:22 45.3 °F 43.3 °F 29.94 in Calm   1.0 mph 93 % 0.00 in
02:27 45.3 °F 43.3 °F 29.94 in Calm   1.0 mph 93 % 0.00 in
02:32 45.5 °F 43.3 °F 29.94 in NNW 1.0 mph 1.0 mph 92 % 0.00 in
02:37 45.7 °F 43.5 °F 29.94 in Calm   1.0 mph 92 % 0.00 in
02:42 45.7 °F 43.5 °F 29.94 in Calm   1.0 mph 92 % 0.00 in
02:47 45.9 °F 43.7 °F 29.93 in Calm   1.0 mph 92 % 0.00 in
02:52 45.9 °F 43.7 °F 29.93 in Calm   1.0 mph 92 % 0.00 in
02:57 45.9 °F 43.7 °F 29.93 in Calm   1.0 mph 92 % 0.00 in
03:02 46.0 °F 43.9 °F 29.93 in Calm   1.0 mph 92 % 0.00 in
03:07 46.0 °F 43.9 °F 29.92 in Calm   1.0 mph 92 % 0.00 in
03:12 46.2 °F 44.1 °F 29.92 in Calm   1.0 mph 92 % 0.00 in
03:17 46.2 °F 44.1 °F 29.92 in Calm   1.0 mph 92 % 0.00 in
03:22 46.4 °F 44.2 °F 29.93 in Calm   1.0 mph 92 % 0.00 in
03:27 46.6 °F 44.4 °F 29.92 in Calm   1.0 mph 92 % 0.00 in
03:32 46.6 °F 44.4 °F 29.92 in Calm   1.0 mph 92 % 0.00 in
03:37 46.6 °F 44.1 °F 29.92 in Calm   1.0 mph 91 % 0.00 in
03:42 46.8 °F 44.2 °F 29.92 in Calm   1.0 mph 91 % 0.00 in
03:47 46.8 °F 44.2 °F 29.92 in Calm   1.0 mph 91 % 0.00 in
03:52 46.8 °F 44.2 °F 29.91 in Calm   1.0 mph 91 % 0.00 in
03:57 46.8 °F 44.2 °F 29.91 in Calm   1.0 mph 91 % 0.00 in
04:02 46.9 °F 44.4 °F 29.91 in Calm   1.0 mph 91 % 0.00 in
04:07 46.9 °F 44.4 °F 29.91 in Calm   1.0 mph 91 % 0.00 in
04:12 46.9 °F 44.4 °F 29.91 in Calm   1.0 mph 91 % 0.00 in
04:17 47.1 °F 44.6 °F 29.91 in Calm   1.0 mph 91 % 0.00 in
04:22 47.1 °F 44.6 °F 29.91 in Calm   1.0 mph 91 % 0.00 in
04:27 47.3 °F 44.8 °F 29.90 in Calm   1.0 mph 91 % 0.00 in
04:33 47.3 °F 44.8 °F 29.90 in Calm   1.0 mph 91 % 0.00 in
04:38 47.5 °F 45.0 °F 29.90 in Calm   1.0 mph 91 % 0.00 in
04:43 47.5 °F 45.0 °F 29.90 in Calm   2.0 mph 91 % 0.00 in
04:48 47.7 °F 45.1 °F 29.89 in NE 1.0 mph 2.0 mph 91 % 0.00 in
04:53 47.7 °F 45.1 °F 29.89 in Calm   2.0 mph 91 % 0.00 in
04:58 47.8 °F 45.3 °F 29.89 in Calm   2.0 mph 91 % 0.00 in
05:03 47.8 °F 45.3 °F 29.89 in Calm   1.0 mph 91 % 0.00 in
05:08 47.8 °F 45.3 °F 29.89 in Calm   1.0 mph 91 % 0.00 in
05:13 47.8 °F 45.0 °F 29.89 in Calm   1.0 mph 90 % 0.00 in
05:18 47.8 °F 45.0 °F 29.89 in Calm   1.0 mph 90 % 0.00 in
05:23 48.0 °F 45.1 °F 29.89 in Calm   1.0 mph 90 % 0.00 in
05:28 48.0 °F 45.1 °F 29.88 in Calm   1.0 mph 90 % 0.00 in
05:33 48.0 °F 45.1 °F 29.88 in Calm   1.0 mph 90 % 0.00 in
05:38 48.0 °F 45.1 °F 29.89 in Calm   1.0 mph 90 % 0.00 in
05:43 48.2 °F 45.3 °F 29.89 in Calm   1.0 mph 90 % 0.00 in
05:48 48.4 °F 45.5 °F 29.89 in Calm   2.0 mph 90 % 0.00 in
05:53 48.4 °F 45.5 °F 29.89 in ENE 1.0 mph 2.0 mph 90 % 0.00 in
05:58 48.4 °F 45.3 °F 29.89 in Calm   2.0 mph 89 % 0.00 in
06:03 48.4 °F 45.3 °F 29.89 in North 1.0 mph 2.0 mph 89 % 0.00 in
06:08 48.4 °F 45.3 °F 29.90 in Calm   2.0 mph 89 % 0.00 in
06:13 48.4 °F 45.3 °F 29.90 in Calm   2.0 mph 89 % 0.00 in
06:18 48.4 °F 45.3 °F 29.90 in NNE 1.0 mph 2.0 mph 89 % 0.00 in
06:23 48.4 °F 45.3 °F 29.89 in Calm   2.0 mph 89 % 0.00 in
06:28 48.6 °F 45.5 °F 29.89 in Calm   2.0 mph 89 % 0.00 in
06:33 48.6 °F 45.5 °F 29.89 in Calm   2.0 mph 89 % 0.00 in
06:38 48.6 °F 45.1 °F 29.89 in Calm   2.0 mph 88 % 0.00 in
06:43 48.6 °F 45.1 °F 29.90 in Calm   1.0 mph 88 % 0.00 in
06:48 48.6 °F 45.1 °F 29.90 in Calm   1.0 mph 88 % 0.00 in
06:53 48.6 °F 45.1 °F 29.90 in Calm   1.0 mph 88 % 0.00 in
06:58 48.7 °F 45.3 °F 29.91 in Calm   1.0 mph 88 % 0.00 in
07:03 48.7 °F 45.3 °F 29.91 in Calm   2.0 mph 88 % 0.00 in
07:08 48.7 °F 45.3 °F 29.91 in Calm   2.0 mph 88 % 0.00 in
07:13 48.9 °F 45.1 °F 29.91 in Calm   2.0 mph 87 % 0.00 in
07:18 48.9 °F 45.1 °F 29.91 in Calm   2.0 mph 87 % 0.00 in
07:23 48.9 °F 45.1 °F 29.91 in Calm   2.0 mph 87 % 0.00 in
07:28 49.1 °F 45.3 °F 29.91 in Calm   3.0 mph 87 % 0.00 in
07:33 49.3 °F 45.5 °F 29.91 in Calm   3.0 mph 87 % 0.00 in
07:38 49.3 °F 45.5 °F 29.91 in Calm   3.0 mph 87 % 0.00 in
07:43 49.3 °F 45.5 °F 29.92 in Calm   2.0 mph 87 % 0.00 in
07:48 49.3 °F 45.5 °F 29.92 in Calm   1.0 mph 87 % 0.00 in
07:53 49.3 °F 45.5 °F 29.91 in Calm   1.0 mph 87 % 0.00 in
07:58 49.5 °F 45.7 °F 29.91 in Calm   2.0 mph 87 % 0.00 in
08:03 49.5 °F 45.7 °F 29.92 in Calm   2.0 mph 87 % 0.00 in
08:08 49.5 °F 45.7 °F 29.92 in Calm   2.0 mph 87 % 0.00 in
08:13 49.5 °F 45.7 °F 29.92 in Calm   2.0 mph 87 % 0.00 in
08:18 49.6 °F 45.9 °F 29.92 in Calm   2.0 mph 87 % 0.00 in
08:23 49.8 °F 46.0 °F 29.92 in Calm   2.0 mph 87 % 0.00 in
08:28 49.8 °F 46.0 °F 29.92 in Calm   1.0 mph 87 % 0.00 in
08:33 50.0 °F 46.0 °F 29.92 in Calm   1.0 mph 86 % 0.00 in
08:38 50.2 °F 46.2 °F 29.92 in Calm   1.0 mph 86 % 0.00 in
08:43 50.2 °F 46.2 °F 29.93 in Calm   1.0 mph 86 % 0.00 in
08:48 50.2 °F 46.2 °F 29.93 in Calm   1.0 mph 86 % 0.00 in
08:53 50.2 °F 46.2 °F 29.93 in Calm   1.0 mph 86 % 0.00 in
08:58 50.4 °F 46.6 °F 29.93 in Calm   2.0 mph 87 % 0.00 in
09:03 50.4 °F 46.6 °F 29.93 in Calm   2.0 mph 87 % 0.00 in
09:08 50.4 °F 46.6 °F 29.93 in Calm   2.0 mph 87 % 0.00 in
09:13 50.4 °F 46.9 °F 29.93 in Calm   1.0 mph 88 % 0.00 in
09:18 50.5 °F 47.1 °F 29.93 in Calm   2.0 mph 88 % 0.00 in
09:23 50.5 °F 47.1 °F 29.94 in Calm   2.0 mph 88 % 0.00 in
09:28 50.5 °F 47.5 °F 29.93 in Calm   2.0 mph 89 % 0.00 in
09:33 50.5 °F 47.5 °F 29.93 in East 1.0 mph 2.0 mph 89 % 0.00 in
09:38 50.5 °F 47.7 °F 29.93 in Calm   2.0 mph 90 % 0.00 in
09:43 50.7 °F 47.8 °F 29.93 in Calm   3.0 mph 90 % 0.00 in
09:48 50.7 °F 47.8 °F 29.94 in NW 1.0 mph 3.0 mph 90 % 0.00 in
09:53 50.5 °F 48.0 °F 29.94 in Calm   3.0 mph 91 % 0.00 in
09:58 50.7 °F 48.2 °F 29.94 in NW 1.0 mph 2.0 mph 91 % 0.00 in
10:03 50.5 °F 48.4 °F 29.94 in NW 1.0 mph 2.0 mph 92 % 0.00 in
10:09 50.5 °F 48.4 °F 29.94 in NNE 1.0 mph 2.0 mph 92 % 0.00 in
10:14 50.5 °F 48.4 °F 29.94 in NNW 2.0 mph 3.0 mph 92 % 0.00 in
10:19 50.5 °F 48.6 °F 29.94 in NNW 1.0 mph 4.0 mph 93 % 0.00 in
10:24 50.5 °F 48.6 °F 29.94 in NNW 1.0 mph 4.0 mph 93 % 0.00 in
10:29 50.5 °F 48.6 °F 29.94 in NNW 1.0 mph 4.0 mph 93 % 0.00 in
10:34 50.5 °F 48.6 °F 29.94 in NW 2.0 mph 4.0 mph 93 % 0.00 in
10:39 50.7 °F 48.7 °F 29.94 in Calm   4.0 mph 93 % 0.00 in
10:44 50.7 °F 48.7 °F 29.94 in NNW 2.0 mph 4.0 mph 93 % 0.00 in
10:49 50.9 °F 48.9 °F 29.94 in NNW 2.0 mph 4.0 mph 93 % 0.00 in
10:54 51.1 °F 49.1 °F 29.94 in Calm   3.0 mph 93 % 0.00 in
10:59 51.1 °F 48.9 °F 29.94 in Calm   3.0 mph 92 % 0.00 in
11:04 50.7 °F 48.6 °F 29.94 in Calm   3.0 mph 92 % 0.00 in
11:09 51.1 °F 49.1 °F 29.94 in Calm   3.0 mph 93 % 0.00 in
11:14 51.3 °F 49.3 °F 29.93 in NNW 1.0 mph 3.0 mph 93 % 0.00 in
11:19 51.3 °F 49.3 °F 29.93 in NNW 2.0 mph 2.0 mph 93 % 0.00 in
11:24 51.1 °F 48.9 °F 29.94 in WNW 1.0 mph 3.0 mph 92 % 0.00 in
11:29 51.1 °F 49.1 °F 29.93 in NW 1.0 mph 5.0 mph 93 % 0.00 in
11:34 51.1 °F 49.1 °F 29.93 in NW 1.0 mph 5.0 mph 93 % 0.00 in
11:39 51.3 °F 49.3 °F 29.93 in NNW 1.0 mph 5.0 mph 93 % 0.00 in
11:44 51.3 °F 49.6 °F 29.93 in NW 1.0 mph 3.0 mph 94 % 0.00 in
11:49 51.4 °F 49.8 °F 29.93 in NW 4.0 mph 4.0 mph 94 % 0.00 in
11:54 51.4 °F 49.8 °F 29.92 in NNW 2.0 mph 5.0 mph 94 % 0.00 in
11:59 51.6 °F 50.0 °F 29.92 in Calm   5.0 mph 94 % 0.00 in
12:04 52.0 °F 50.4 °F 29.92 in NW 1.0 mph 5.0 mph 94 % 0.00 in
12:09 52.0 °F 50.4 °F 29.91 in NNW 1.0 mph 4.0 mph 94 % 0.00 in
12:14 52.2 °F 50.5 °F 29.91 in NNW 1.0 mph 3.0 mph 94 % 0.00 in
12:19 52.2 °F 50.5 °F 29.91 in NW 1.0 mph 3.0 mph 94 % 0.00 in
12:24 52.2 °F 50.5 °F 29.90 in NNW 1.0 mph 3.0 mph 94 % 0.00 in
12:29 52.3 °F 50.9 °F 29.90 in NNW 2.0 mph 3.0 mph 95 % 0.00 in
12:34 52.3 °F 50.7 °F 29.89 in Calm   3.0 mph 94 % 0.00 in
12:39 52.3 °F 50.7 °F 29.89 in NNW 1.0 mph 3.0 mph 94 % 0.00 in
12:44 52.2 °F 50.5 °F 29.89 in NNW 1.0 mph 3.0 mph 94 % 0.00 in
12:49 52.2 °F 50.7 °F 29.88 in Calm   3.0 mph 95 % 0.00 in
12:54 52.3 °F 50.9 °F 29.88 in Calm   2.0 mph 95 % 0.00 in
12:59 52.5 °F 51.1 °F 29.88 in Calm   2.0 mph 95 % 0.00 in
13:04 52.7 °F 51.3 °F 29.87 in Calm   1.0 mph 95 % 0.00 in
13:09 52.9 °F 51.4 °F 29.87 in ENE 2.0 mph 3.0 mph 95 % 0.00 in
13:14 52.9 °F 51.4 °F 29.87 in Calm   3.0 mph 95 % 0.00 in
13:15 52.9 °F 51.4 °F 29.87 in Calm   3.0 mph 95 % 0.00 in
13:20 53.1 °F 52.0 °F 29.87 in Calm   2.0 mph 96 % 0.00 in
13:25 53.2 °F 51.8 °F 29.87 in Calm   1.0 mph 95 % 0.00 in
13:30 53.2 °F 51.8 °F 29.86 in Calm   3.0 mph 95 % 0.00 in
13:35 53.6 °F 52.5 °F 29.86 in NNW 1.0 mph 3.0 mph 96 % 0.00 in
13:40 53.4 °F 52.0 °F 29.86 in NW 1.0 mph 3.0 mph 95 % 0.00 in
13:45 53.4 °F 52.0 °F 29.86 in Calm   3.0 mph 95 % 0.00 in
13:50 53.6 °F 52.2 °F 29.86 in NNW 1.0 mph 3.0 mph 95 % 0.00 in
13:55 53.8 °F 52.3 °F 29.86 in Calm   3.0 mph 95 % 0.00 in
14:00 53.8 °F 52.3 °F 29.86 in NNW 1.0 mph 3.0 mph 95 % 0.00 in
14:05 54.0 °F 52.5 °F 29.86 in Calm   3.0 mph 95 % 0.00 in
14:10 54.0 °F 52.5 °F 29.86 in Calm   2.0 mph 95 % 0.00 in
14:15 54.1 °F 52.7 °F 29.86 in NNW 1.0 mph 2.0 mph 95 % 0.00 in
14:21 54.3 °F 52.9 °F 29.86 in NNW 2.0 mph 2.0 mph 95 % 0.00 in
14:26 54.1 °F 52.7 °F 29.86 in NNW 1.0 mph 3.0 mph 95 % 0.00 in
14:31 54.3 °F 52.9 °F 29.86 in NNW 3.0 mph 3.0 mph 95 % 0.00 in
14:36 54.5 °F 53.1 °F 29.86 in NW 1.0 mph 3.0 mph 95 % 0.00 in
14:41 54.3 °F 52.9 °F 29.86 in NW 1.0 mph 3.0 mph 95 % 0.00 in
14:46 54.3 °F 52.9 °F 29.86 in WNW 1.0 mph 5.0 mph 95 % 0.00 in
14:51 54.5 °F 53.1 °F 29.86 in Calm   5.0 mph 95 % 0.00 in
14:56 54.5 °F 52.9 °F 29.86 in NW 2.0 mph 5.0 mph 94 % 0.00 in
15:01 54.5 °F 52.9 °F 29.86 in NW 1.0 mph 3.0 mph 94 % 0.00 in
15:06 54.7 °F 53.1 °F 29.86 in Calm   3.0 mph 94 % 0.00 in
15:11 54.7 °F 53.1 °F 29.86 in NW 1.0 mph 3.0 mph 94 % 0.00 in
15:16 54.7 °F 53.1 °F 29.87 in NNW 1.0 mph 3.0 mph 94 % 0.00 in
15:21 54.7 °F 53.1 °F 29.86 in NW 1.0 mph 3.0 mph 94 % 0.00 in
15:26 54.9 °F 52.9 °F 29.86 in NW 2.0 mph 3.0 mph 93 % 0.00 in
15:31 54.9 °F 52.9 °F 29.86 in NNW 2.0 mph 4.0 mph 93 % 0.00 in
15:36 55.0 °F 53.1 °F 29.86 in NNW 1.0 mph 5.0 mph 93 % 0.00 in
15:41 55.2 °F 53.2 °F 29.86 in NNW 1.0 mph 5.0 mph 93 % 0.00 in
15:46 55.2 °F 52.9 °F 29.86 in NW 2.0 mph 5.0 mph 92 % 0.00 in
15:51 55.6 °F 53.2 °F 29.86 in NNW 3.0 mph 5.0 mph 92 % 0.00 in
15:56 55.6 °F 53.2 °F 29.86 in NNW 1.0 mph 5.0 mph 92 % 0.00 in
16:01 55.8 °F 53.4 °F 29.86 in Calm   5.0 mph 92 % 0.00 in
16:06 55.8 °F 53.4 °F 29.86 in NW 1.0 mph 4.0 mph 92 % 0.00 in
16:11 55.8 °F 53.4 °F 29.86 in NNW 1.0 mph 4.0 mph 92 % 0.00 in
16:16 55.8 °F 53.2 °F 29.86 in WNW 1.0 mph 3.0 mph 91 % 0.00 in
16:21 55.8 °F 53.4 °F 29.86 in NNE 1.0 mph 4.0 mph 92 % 0.00 in
16:26 55.9 °F 53.6 °F 29.86 in Calm   4.0 mph 92 % 0.00 in
16:31 55.9 °F 53.4 °F 29.87 in NW 1.0 mph 4.0 mph 91 % 0.00 in
16:36 55.9 °F 53.4 °F 29.87 in North 2.0 mph 4.0 mph 91 % 0.00 in
16:41 55.8 °F 53.2 °F 29.87 in North 2.0 mph 6.0 mph 91 % 0.00 in
16:46 55.8 °F 53.2 °F 29.87 in NW 1.0 mph 6.0 mph 91 % 0.00 in
16:51 55.9 °F 53.4 °F 29.87 in Calm   6.0 mph 91 % 0.00 in
16:56 55.9 °F 53.1 °F 29.88 in Calm   5.0 mph 90 % 0.00 in
17:01 55.9 °F 53.4 °F 29.88 in NNW 1.0 mph 3.0 mph 91 % 0.00 in
17:06 55.9 °F 53.1 °F 29.88 in Calm   5.0 mph 90 % 0.00 in
17:11 55.8 °F 52.9 °F 29.88 in NNW 1.0 mph 5.0 mph 90 % 0.00 in
17:16 55.8 °F 53.2 °F 29.88 in Calm   5.0 mph 91 % 0.00 in
17:21 55.8 °F 53.2 °F 29.88 in NNE 1.0 mph 4.0 mph 91 % 0.00 in
17:26 55.8 °F 53.2 °F 29.89 in Calm   4.0 mph 91 % 0.00 in
17:31 55.8 °F 53.2 °F 29.88 in Calm   3.0 mph 91 % 0.00 in
17:36 55.6 °F 53.1 °F 29.88 in Calm   3.0 mph 91 % 0.00 in
17:41 55.6 °F 53.1 °F 29.89 in North 2.0 mph 3.0 mph 91 % 0.00 in
17:46 55.6 °F 53.1 °F 29.89 in NNW 1.0 mph 3.0 mph 91 % 0.00 in
17:51 55.6 °F 53.1 °F 29.89 in Calm   3.0 mph 91 % 0.00 in
17:56 55.6 °F 53.1 °F 29.88 in NNW 1.0 mph 3.0 mph 91 % 0.00 in
18:01 55.6 °F 53.1 °F 29.88 in NE 2.0 mph 4.0 mph 91 % 0.00 in
18:06 55.4 °F 52.9 °F 29.89 in East 1.0 mph 4.0 mph 91 % 0.00 in
18:11 55.4 °F 52.9 °F 29.89 in Calm   4.0 mph 91 % 0.00 in
18:16 55.4 °F 53.1 °F 29.89 in NNW 1.0 mph 4.0 mph 92 % 0.00 in
18:21 55.4 °F 53.1 °F 29.90 in NNW 1.0 mph 4.0 mph 92 % 0.00 in
18:26 55.2 °F 52.9 °F 29.90 in NNW 1.0 mph 5.0 mph 92 % 0.00 in
18:31 55.2 °F 52.9 °F 29.90 in Calm   5.0 mph 92 % 0.00 in
18:36 55.2 °F 52.9 °F 29.90 in NNE 3.0 mph 5.0 mph 92 % 0.00 in
18:41 55.2 °F 52.9 °F 29.90 in NNW 4.0 mph 5.0 mph 92 % 0.00 in
18:47 55.2 °F 52.7 °F 29.91 in North 3.0 mph 8.0 mph 91 % 0.00 in
18:52 55.2 °F 52.7 °F 29.91 in NW 3.0 mph 8.0 mph 91 % 0.00 in
18:57 55.2 °F 52.7 °F 29.91 in NNW 1.0 mph 8.0 mph 91 % 0.00 in
19:02 55.0 °F 52.2 °F 29.91 in NNW 5.0 mph 8.0 mph 90 % 0.00 in
19:07 54.7 °F 51.3 °F 29.91 in NNW 2.0 mph 8.0 mph 88 % 0.00 in
19:12 54.1 °F 50.0 °F 29.92 in North 6.0 mph 13.0 mph 86 % 0.00 in
19:17 53.8 °F 49.5 °F 29.92 in East 1.0 mph 13.0 mph 85 % 0.00 in
19:22 53.2 °F 48.6 °F 29.93 in NW 3.0 mph 13.0 mph 84 % 0.00 in
19:27 53.1 °F 48.4 °F 29.93 in WNW 7.0 mph 12.0 mph 84 % 0.00 in
19:32 52.7 °F 48.0 °F 29.94 in ENE 4.0 mph 14.0 mph 84 % 0.00 in
19:37 52.5 °F 47.8 °F 29.94 in NW 7.0 mph 14.0 mph 84 % 0.00 in
19:42 52.2 °F 47.5 °F 29.94 in NW 3.0 mph 17.0 mph 84 % 0.00 in
19:47 52.0 °F 47.7 °F 29.94 in NNW 2.0 mph 17.0 mph 85 % 0.00 in
19:51 51.6 °F 47.3 °F 29.94 in NW 10.0 mph 17.0 mph 85 % 0.00 in
19:56 51.4 °F 47.1 °F 29.95 in NW 5.0 mph 14.0 mph 85 % 0.00 in
20:01 51.1 °F 46.8 °F 29.96 in NNE 10.0 mph 14.0 mph 85 % 0.00 in
20:06 50.5 °F 46.6 °F 29.96 in NNW 5.0 mph 14.0 mph 86 % 0.00 in
20:12 50.2 °F 46.2 °F 29.97 in WSW 3.0 mph 14.0 mph 86 % 0.00 in
20:17 49.6 °F 45.9 °F 29.97 in NNE 9.0 mph 14.0 mph 87 % 0.00 in
20:22 49.5 °F 45.7 °F 29.97 in NW 7.0 mph 13.0 mph 87 % 0.00 in
20:27 48.9 °F 45.1 °F 29.97 in NE 8.0 mph 15.0 mph 87 % 0.00 in
20:32 48.6 °F 44.8 °F 29.97 in WNW 5.0 mph 18.0 mph 87 % 0.00 in
20:37 48.4 °F 45.0 °F 29.98 in NW 3.0 mph 18.0 mph 88 % 0.00 in
20:42 48.0 °F 44.6 °F 29.98 in WNW 5.0 mph 18.0 mph 88 % 0.00 in
20:47 47.7 °F 44.2 °F 29.98 in NNW 9.0 mph 13.0 mph 88 % 0.00 in
20:52 47.3 °F 43.9 °F 29.99 in Calm   16.0 mph 88 % 0.00 in
20:57 47.1 °F 43.7 °F 29.99 in NNW 4.0 mph 16.0 mph 88 % 0.00 in
21:02 46.9 °F 43.5 °F 29.99 in NNE 2.0 mph 16.0 mph 88 % 0.00 in
21:07 46.9 °F 43.9 °F 29.99 in NNW 3.0 mph 15.0 mph 89 % 0.00 in
21:12 46.8 °F 43.7 °F 29.99 in NNW 3.0 mph 15.0 mph 89 % 0.00 in
21:17 46.4 °F 43.3 °F 29.99 in North 5.0 mph 15.0 mph 89 % 0.00 in
21:22 46.0 °F 43.3 °F 29.99 in NW 4.0 mph 15.0 mph 90 % 0.00 in
21:27 45.9 °F 43.2 °F 30.00 in North 4.0 mph 15.0 mph 90 % 0.00 in
21:32 45.7 °F 43.0 °F 30.00 in SW 3.0 mph 15.0 mph 90 % 0.00 in
21:37 45.3 °F 42.6 °F 29.99 in NNE 6.0 mph 13.0 mph 90 % 0.00 in
21:42 45.1 °F 42.4 °F 30.00 in WNW 8.0 mph 14.0 mph 90 % 0.00 in
21:47 45.0 °F 42.4 °F 30.00 in NNW 4.0 mph 14.0 mph 91 % 0.00 in
21:52 44.8 °F 42.3 °F 30.00 in North 4.0 mph 14.0 mph 91 % 0.00 in
21:57 44.6 °F 42.4 °F 30.00 in NNW 4.0 mph 12.0 mph 92 % 0.00 in
22:02 44.4 °F 42.3 °F 30.00 in NW 7.0 mph 12.0 mph 92 % 0.00 in
22:07 44.2 °F 42.3 °F 30.00 in NNW 4.0 mph 12.0 mph 93 % 0.00 in
22:12 44.2 °F 42.3 °F 30.00 in NNW 11.0 mph 12.0 mph 93 % 0.00 in
22:17 44.1 °F 42.4 °F 30.00 in NNW 2.0 mph 12.0 mph 94 % 0.00 in
22:22 44.1 °F 42.4 °F 30.00 in NW 4.0 mph 12.0 mph 94 % 0.00 in
22:27 43.9 °F 42.3 °F 30.00 in NW 4.0 mph 12.0 mph 94 % 0.00 in
22:32 43.9 °F 42.3 °F 30.00 in NNW 1.0 mph 14.0 mph 94 % 0.00 in
22:37 43.7 °F 41.7 °F 30.00 in NNW 4.0 mph 14.0 mph 93 % 0.00 in
22:42 43.7 °F 42.1 °F 30.00 in NNW 9.0 mph 14.0 mph 94 % 0.00 in
22:47 43.7 °F 42.1 °F 30.00 in NE 3.0 mph 14.0 mph 94 % 0.00 in
22:52 43.5 °F 41.9 °F 30.00 in WNW 2.0 mph 11.0 mph 94 % 0.00 in
22:57 43.3 °F 41.5 °F 30.00 in NW 3.0 mph 12.0 mph 93 % 0.00 in
23:02 43.3 °F 41.5 °F 30.00 in NW 6.0 mph 12.0 mph 93 % 0.00 in
23:07 43.2 °F 41.4 °F 30.00 in North 3.0 mph 12.0 mph 93 % 0.00 in
23:12 43.2 °F 41.4 °F 29.99 in North 8.0 mph 14.0 mph 93 % 0.00 in
23:17 43.2 °F 41.0 °F 29.99 in NW 2.0 mph 14.0 mph 92 % 0.00 in
23:22 43.3 °F 41.2 °F 29.99 in North 2.0 mph 14.0 mph 92 % 0.00 in
23:27 43.3 °F 41.2 °F 29.99 in NW 2.0 mph 13.0 mph 92 % 0.00 in
23:32 43.3 °F 41.2 °F 29.99 in NNW 1.0 mph 9.0 mph 92 % 0.00 in
23:37 43.3 °F 40.8 °F 29.99 in NW 2.0 mph 9.0 mph 91 % 0.00 in
23:42 43.3 °F 40.8 °F 30.00 in NNW 1.0 mph 9.0 mph 91 % 0.00 in
23:47 43.3 °F 40.8 °F 29.99 in NW 1.0 mph 8.0 mph 91 % 0.00 in
23:52 43.3 °F 40.8 °F 30.00 in WNW 3.0 mph 7.0 mph 91 % 0.00 in
23:57 43.3 °F 40.6 °F 30.00 in WNW 2.0 mph 8.0 mph 90 % 0.00 in
Spring, Texas: Villages of Bridgestone
Compliments of Weather Underground - 2.75 mb

Script developed by  Jim McMurry - jmcmurry@mwt.net Adapted for the template by  Wim van der Kuil - Leuven-Template.eu

You find our weather info also at:

UK Metoffice

WeatherCloud

Weather Underground

Mid-South Weather Network

AWEKAS

Citizen Weather Observer Program (CWOP)

HAMweather, WeatherForYou, PWS Weather

Equipment we use:

Weather-station
Davis Vantage Vue

Weather-program
Meteohub

Weather-server
Debian 7.9 x86 (Guest)

Provider
DreamHost

Davis Vantage Vue

Meteohub

Debian 7.9 x86 (Guest)

DreamHost